Condor Express — 9V5373 — position and weather

sailwx.info

Track history (hours):
 
Tides and Currents Weather Stations Pressure Air Temp Water Temp Dewpoint Dewpoint Depression Visibility Wind Speed Wind Dir Waves Ship Positions

Condor Express

Operator: Condor Marine Services

Last reported at 2020-Jun-25 19:34 UTC. Time now 2020-Jul-07 18:58 UTC.
Position N 33°08' W 008°38'.
Warning: this ship's position is 11 days out of date.

Length 235 m; draft 13 m.

Type: Cargo ship. MMSI: 563014500.

Date/timePositionNaut miles runAvg speedWind from/ knotsBaromVisibWave heightAir tempDewpointWater temp
2020-Jun-25 19:34N 33°08' W 008°38'  
2020-Jun-22 23:30N 34°44' W 009°15'2311.2
2020-Jun-22 21:30N 35°06' W 009°21'510.9
2020-Jun-22 21:00N 35°11' W 009°23'711.3
2020-Jun-22 20:25N 35°18' W 009°25'511.1
2020-Jun-22 19:59N 35°22' W 009°26'3811.0
2020-Jun-22 16:30N 35°59' W 009°38'2311.2
2020-Jun-22 14:24N 36°22' W 009°45'411.1
2020-Jun-22 14:00N 36°26' W 009°46'1111.0
2020-Jun-22 13:00N 36°37' W 009°49'1211.6
2020-Jun-22 11:57N 36°49' W 009°53'3311.3
2020-Jun-22 09:00N 37°21' W 010°03'3911.2
2020-Jun-22 05:30N 37°59' W 010°16'2211.1
2020-Jun-22 03:30N 38°21' W 010°22'611.1
2020-Jun-22 03:00N 38°26' W 010°24'1711.1
2020-Jun-22 01:30N 38°42' W 010°28'611.2
2020-Jun-22 01:00N 38°48' W 010°28'  
2020-Jun-19 04:36N 49°32' W 004°08'7310.9
2020-Jun-18 21:57N 50°04' W 002°27'711.4
2020-Jun-18 21:21N 50°06' W 002°17'20 9.8
2020-Jun-18 19:21N 50°11' W 001°47'38 9.3
2020-Jun-18 15:16N 50°22' W 000°50'511.9
2020-Jun-18 14:51N 50°23' W 000°43'1712.3
2020-Jun-18 13:30N 50°27' W 000°18'3012.4
2020-Jun-18 11:04N 50°35' E 000°29'111.5
2020-Jun-18 10:57N 50°36' E 000°31'511.3
2020-Jun-18 10:30N 50°37' E 000°38'4411.0
2020-Jun-18 06:30N 51°05' E 001°31'2612.9
2020-Jun-18 04:30N 51°26' E 001°56'2311.6
2020-Jun-18 02:30N 51°43' E 002°21'1110.6
2020-Jun-18 01:29N 51°52' E 002°32'3010.0
2020-Jun-17 22:30N 52°20' E 002°47'3011.8
2020-Jun-17 20:00N 52°47' E 003°09'612.5
2020-Jun-17 19:30N 52°52' E 003°13'612.5
2020-Jun-17 19:00N 52°58' E 003°17'812.6
2020-Jun-17 18:24N 53°05' E 003°21'1112.3
2020-Jun-17 17:29N 53°16' E 003°27'2911.3
2020-Jun-17 14:55N 53°43' E 003°42'911.0
2020-Jun-17 14:05N 53°49' E 003°54'1211.2
2020-Jun-17 12:58N 53°57' E 004°11'2911.5
2020-Jun-17 10:29N 54°19' E 004°42'611.7
2020-Jun-17 09:59N 54°24' E 004°46'5611.3
2020-Jun-17 05:00N 55°12' E 005°36'611.2
2020-Jun-17 04:30N 55°17' E 005°41'1711.2
2020-Jun-17 03:00N 55°32' E 005°56'611.2
2020-Jun-17 02:30N 55°37' E 006°01'611.1
2020-Jun-17 02:00N 55°41' E 006°06'2811.1
2020-Jun-16 23:30N 56°05' E 006°31'7811.1
2020-Jun-16 16:30N 57°12' E 007°45'3810.8
2020-Jun-16 13:00N 57°34' E 008°41'2210.8
2020-Jun-16 11:00N 57°45' E 009°16'611.7
2020-Jun-16 10:30N 57°48' E 009°26'42 6.0
2020-Jun-16 03:28N 57°37' E 010°42'0 0.0
2020-Jun-16 02:28N 57°37' E 010°42'0 0.1
2020-Jun-16 01:28N 57°37' E 010°42'0 0.0
2020-Jun-16 00:58N 57°37' E 010°42'0 0.2
2020-Jun-15 23:00N 57°37' E 010°43'7 7.0
2020-Jun-15 22:00N 57°37' E 010°56'  
Track history (hours):
 
Tides and Currents Weather Stations Pressure Air Temp Water Temp Dewpoint Dewpoint Depression Visibility Wind Speed Wind Dir Waves Ship Positions

Condor Express

Operator: Condor Marine Services

Last reported at 2020-Jun-25 19:34 UTC. Time now 2020-Jul-07 18:58 UTC.
Position N 33°08' W 008°38'.
Warning: this ship's position is 11 days out of date.

Length 235 m; draft 13 m.

Type: Cargo ship. MMSI: 563014500.

Date/timePositionNaut miles runAvg speedWind from/ knotsBaromVisibWave heightAir tempDewpointWater temp
2020-Jun-25 19:34N 33°08' W 008°38'  
2020-Jun-22 23:30N 34°44' W 009°15'2311.2
2020-Jun-22 21:30N 35°06' W 009°21'510.9
2020-Jun-22 21:00N 35°11' W 009°23'711.3
2020-Jun-22 20:25N 35°18' W 009°25'511.1
2020-Jun-22 19:59N 35°22' W 009°26'3811.0
2020-Jun-22 16:30N 35°59' W 009°38'2311.2
2020-Jun-22 14:24N 36°22' W 009°45'411.1
2020-Jun-22 14:00N 36°26' W 009°46'1111.0
2020-Jun-22 13:00N 36°37' W 009°49'1211.6
2020-Jun-22 11:57N 36°49' W 009°53'3311.3
2020-Jun-22 09:00N 37°21' W 010°03'3911.2
2020-Jun-22 05:30N 37°59' W 010°16'2211.1
2020-Jun-22 03:30N 38°21' W 010°22'611.1
2020-Jun-22 03:00N 38°26' W 010°24'1711.1
2020-Jun-22 01:30N 38°42' W 010°28'611.2
2020-Jun-22 01:00N 38°48' W 010°28'  
2020-Jun-19 04:36N 49°32' W 004°08'7310.9
2020-Jun-18 21:57N 50°04' W 002°27'711.4
2020-Jun-18 21:21N 50°06' W 002°17'20 9.8
2020-Jun-18 19:21N 50°11' W 001°47'38 9.3
2020-Jun-18 15:16N 50°22' W 000°50'511.9
2020-Jun-18 14:51N 50°23' W 000°43'1712.3
2020-Jun-18 13:30N 50°27' W 000°18'3012.4
2020-Jun-18 11:04N 50°35' E 000°29'111.5
2020-Jun-18 10:57N 50°36' E 000°31'511.3
2020-Jun-18 10:30N 50°37' E 000°38'4411.0
2020-Jun-18 06:30N 51°05' E 001°31'2612.9
2020-Jun-18 04:30N 51°26' E 001°56'2311.6
2020-Jun-18 02:30N 51°43' E 002°21'1110.6
2020-Jun-18 01:29N 51°52' E 002°32'3010.0
2020-Jun-17 22:30N 52°20' E 002°47'3011.8
2020-Jun-17 20:00N 52°47' E 003°09'612.5
2020-Jun-17 19:30N 52°52' E 003°13'612.5
2020-Jun-17 19:00N 52°58' E 003°17'812.6
2020-Jun-17 18:24N 53°05' E 003°21'1112.3
2020-Jun-17 17:29N 53°16' E 003°27'2911.3
2020-Jun-17 14:55N 53°43' E 003°42'911.0
2020-Jun-17 14:05N 53°49' E 003°54'1211.2
2020-Jun-17 12:58N 53°57' E 004°11'2911.5
2020-Jun-17 10:29N 54°19' E 004°42'611.7
2020-Jun-17 09:59N 54°24' E 004°46'5611.3
2020-Jun-17 05:00N 55°12' E 005°36'611.2
2020-Jun-17 04:30N 55°17' E 005°41'1711.2
2020-Jun-17 03:00N 55°32' E 005°56'611.2
2020-Jun-17 02:30N 55°37' E 006°01'611.1
2020-Jun-17 02:00N 55°41' E 006°06'2811.1
2020-Jun-16 23:30N 56°05' E 006°31'7811.1
2020-Jun-16 16:30N 57°12' E 007°45'3810.8
2020-Jun-16 13:00N 57°34' E 008°41'2210.8
2020-Jun-16 11:00N 57°45' E 009°16'611.7
2020-Jun-16 10:30N 57°48' E 009°26'42 6.0
2020-Jun-16 03:28N 57°37' E 010°42'0 0.0
2020-Jun-16 02:28N 57°37' E 010°42'0 0.1
2020-Jun-16 01:28N 57°37' E 010°42'0 0.0
2020-Jun-16 00:58N 57°37' E 010°42'0 0.2
2020-Jun-15 23:00N 57°37' E 010°43'7 7.0
2020-Jun-15 22:00N 57°37' E 010°56'  

Dump ship's entire track history